Time;durP1;ratioP1;P1;durP2;ratioP2;P2;SDS_P1;SDS_P2;PMS_P1;PMS_P2;Temp;Humidity;BMP_temperature;BMP_pressure;BME280_temperature;BME280_humidity;BME280_pressure;Samples;Min_cycle;Max_cycle;Signal;HPM_P1;HPM_P2
2022/06/03 00:00:53;;;;;;;8.52;4.78;;;;;;;15.13;95.52;96384.53;4972097;28;20210;-68
2022/06/03 00:03:45;;;;;;;9.13;4.90;;;;;;;15.23;95.19;96387.66;4973288;28;21266;-68
2022/06/03 00:06:30;;;;;;;8.00;5.30;;;;;;;15.32;94.14;96379.31;4974457;28;20235;-69
2022/06/03 00:09:16;;;;;;;8.55;5.72;;;;;;;15.25;96.74;96367.84;4973335;28;20211;-69
2022/06/03 00:12:00;;;;;;;9.32;5.93;;;;;;;15.14;99.19;96367.59;4974206;28;20741;-68
2022/06/03 00:14:54;;;;;;;8.00;5.65;;;;;;;15.19;99.05;96364.34;4973852;28;20199;-69
2022/06/03 00:17:37;;;;;;;6.57;4.85;;;;;;;15.27;94.62;96367.63;4973593;28;20293;-69
2022/06/03 00:20:17;;;;;;;10.15;4.68;;;;;;;15.08;95.79;96368.38;4975349;28;20597;-69
2022/06/03 00:23:05;;;;;;;7.18;4.55;;;;;;;15.07;96.66;96364.13;4977310;28;20797;-68
2022/06/03 00:25:51;;;;;;;8.27;5.30;;;;;;;15.12;96.79;96372.31;4977397;28;20230;-68
2022/06/03 00:28:43;;;;;;;7.53;4.93;;;;;;;14.86;96.09;96358.94;4977528;28;20202;-69
2022/06/03 00:31:40;;;;;;;8.27;5.25;;;;;;;14.93;97.90;96369.56;4977623;28;21213;-68
2022/06/03 00:34:27;;;;;;;10.32;5.47;;;;;;;14.83;98.54;96369.97;4976316;28;20211;-69
2022/06/03 00:37:09;;;;;;;9.77;5.05;;;;;;;14.79;97.74;96376.69;4977755;28;20280;-69
2022/06/03 00:39:54;;;;;;;6.25;4.22;;;;;;;14.73;92.93;96369.53;4976096;28;20879;-69
2022/06/03 00:42:52;;;;;;;6.95;4.32;;;;;;;14.68;92.66;96366.66;4976099;28;20234;-69
2022/06/03 00:45:40;;;;;;;9.95;4.22;;;;;;;14.80;92.91;96369.53;4998820;28;20223;-68
2022/06/03 00:48:23;;;;;;;8.75;5.68;;;;;;;14.60;99.08;96362.53;4977160;28;20199;-69
2022/06/03 00:51:04;;;;;;;8.52;5.32;;;;;;;14.62;97.14;96357.88;4977353;28;20621;-68
2022/06/03 00:54:12;;;;;;;8.35;5.25;;;;;;;14.63;97.50;96351.56;4976962;28;20203;-68
2022/06/03 00:57:04;;;;;;;8.48;5.10;;;;;;;14.70;94.50;96356.66;4976622;28;20625;-69
2022/06/03 00:59:48;;;;;;;5.88;3.83;;;;;;;14.59;92.67;96355.59;4977240;28;20214;-69
2022/06/03 01:02:25;;;;;;;8.80;4.68;;;;;;;14.43;95.21;96355.94;4976895;28;20195;-69
2022/06/03 01:05:08;;;;;;;10.80;5.30;;;;;;;14.49;95.68;96349.88;4976047;28;20231;-68
2022/06/03 01:07:48;;;;;;;7.15;4.90;;;;;;;14.58;95.55;96357.44;4977071;28;20714;-69
2022/06/03 01:10:40;;;;;;;6.88;4.45;;;;;;;14.26;94.78;96362.59;4976731;28;20203;-68
2022/06/03 01:13:23;;;;;;;8.05;4.75;;;;;;;14.28;93.61;96366.69;4967728;28;20265;-69
2022/06/03 01:15:58;;;;;;;9.18;4.63;;;;;;;14.35;94.40;96361.41;4976703;28;20218;-68
2022/06/03 01:18:38;;;;;;;8.07;4.68;;;;;;;14.31;94.74;96363.63;4977008;28;20236;-69
2022/06/03 01:21:14;;;;;;;7.55;4.85;;;;;;;14.29;95.10;96359.53;4976809;28;20755;-69
2022/06/03 01:23:58;;;;;;;7.88;5.05;;;;;;;14.28;94.22;96363.22;4976242;28;20199;-69
2022/06/03 01:26:38;;;;;;;6.80;4.50;;;;;;;14.36;93.74;96347.97;4976695;28;20227;-68
2022/06/03 01:29:30;;;;;;;8.52;4.30;;;;;;;14.22;93.75;96359.53;4976358;28;20199;-68
2022/06/03 01:32:26;;;;;;;8.52;4.93;;;;;;;13.89;96.08;96365.59;4975052;28;20210;-68
2022/06/03 01:35:13;;;;;;;7.57;4.22;;;;;;;13.70;95.65;96366.28;4976390;28;21426;-68
2022/06/03 01:37:47;;;;;;;7.53;4.25;;;;;;;13.89;93.60;96370.91;4976508;28;20219;-68
2022/06/03 01:40:24;;;;;;;7.65;4.72;;;;;;;13.89;95.85;96376.22;4974412;28;20214;-68
2022/06/03 01:43:27;;;;;;;6.97;4.60;;;;;;;14.04;92.98;96369.78;4975748;28;20211;-67
2022/06/03 01:46:15;;;;;;;6.95;4.78;;;;;;;13.87;93.00;96370.28;4976033;28;20233;-69
2022/06/03 01:49:02;;;;;;;8.90;5.57;;;;;;;13.78;98.55;96366.13;4976358;28;20203;-69
2022/06/03 01:51:46;;;;;;;9.05;5.72;;;;;;;13.85;100.00;96361.72;4976001;28;20663;-68
2022/06/03 01:54:49;;;;;;;9.38;5.75;;;;;;;14.05;98.10;96357.34;4976055;28;20249;-68
2022/06/03 01:57:40;;;;;;;7.93;5.60;;;;;;;13.98;97.08;96357.31;4965829;28;20231;-69
2022/06/03 02:00:27;;;;;;;11.90;5.90;;;;;;;13.97;95.59;96348.75;4975986;28;20619;-69
2022/06/03 02:03:38;;;;;;;8.00;5.13;;;;;;;14.14;93.93;96350.91;4975921;28;20218;-69
2022/06/03 02:06:48;;;;;;;9.27;5.18;;;;;;;14.12;94.89;96356.41;4940968;28;20280;-69
2022/06/03 02:09:43;;;;;;;10.70;6.30;;;;;;;14.03;96.82;96348.78;4975342;28;20211;-69
2022/06/03 02:12:33;;;;;;;8.48;4.95;;;;;;;14.06;93.63;96333.31;4976503;28;20210;-68
2022/06/03 02:15:35;;;;;;;8.88;5.30;;;;;;;14.04;94.56;96345.94;4975794;28;20208;-68
2022/06/03 02:21:58;;;;;;;10.48;6.10;;;;;;;14.11;96.77;96340.69;4973915;28;21199;-68
2022/06/03 02:24:48;;;;;;;10.55;6.55;;;;;;;14.09;98.45;96348.00;4950025;28;20202;-68
2022/06/03 02:27:38;;;;;;;9.25;6.53;;;;;;;14.20;97.71;96342.19;4975877;28;20226;-69
2022/06/03 02:30:34;;;;;;;7.38;5.38;;;;;;;13.86;93.60;96359.88;4975759;28;20204;-69
2022/06/03 02:33:33;;;;;;;9.98;5.65;;;;;;;13.98;92.85;96345.91;4975530;28;20218;-69
2022/06/03 02:36:23;;;;;;;8.88;5.32;;;;;;;13.66;95.47;96354.44;4975744;28;20208;-68
2022/06/03 02:39:04;;;;;;;8.68;5.70;;;;;;;13.78;97.45;96360.03;4942524;28;20242;-69
2022/06/03 02:42:04;;;;;;;8.23;5.55;;;;;;;13.82;95.09;96361.28;4974017;28;20203;-69
2022/06/03 02:44:52;;;;;;;8.43;5.43;;;;;;;13.77;96.40;96353.09;4974703;28;20206;-69
2022/06/03 02:47:59;;;;;;;9.38;5.75;;;;;;;13.79;97.34;96357.19;5002428;28;20784;-69
2022/06/03 02:50:51;;;;;;;9.27;5.38;;;;;;;13.95;94.86;96350.75;4981861;28;20210;-68
2022/06/03 02:54:02;;;;;;;9.80;5.60;;;;;;;13.92;93.64;96351.97;4975223;28;20200;-67
2022/06/03 02:57:04;;;;;;;10.13;5.90;;;;;;;13.95;95.73;96351.59;4956864;28;20227;-68
2022/06/03 03:00:03;;;;;;;13.20;6.40;;;;;;;13.88;97.35;96350.72;4971654;28;20203;-68
2022/06/03 03:02:39;;;;;;;14.40;7.57;;;;;;;13.92;98.26;96346.66;4974590;28;20318;-67
2022/06/03 03:05:33;;;;;;;11.57;6.50;;;;;;;13.85;98.00;96348.47;4975537;28;20210;-69
2022/06/03 03:08:31;;;;;;;8.68;5.50;;;;;;;13.76;96.54;96351.44;4975242;28;20259;-69
2022/06/03 03:11:33;;;;;;;9.30;6.03;;;;;;;13.84;97.37;96343.38;4975059;28;20214;-69
2022/06/03 03:14:26;;;;;;;10.35;6.50;;;;;;;13.70;98.22;96350.41;4965248;28;20698;-68
2022/06/03 03:17:25;;;;;;;16.75;7.40;;;;;;;13.70;100.00;96355.69;4974717;28;20369;-67
2022/06/03 03:20:14;;;;;;;12.25;6.88;;;;;;;13.46;100.00;96352.66;4942913;28;20218;-69
2022/06/03 03:22:58;;;;;;;11.27;6.30;;;;;;;13.43;97.07;96339.81;4974622;28;20754;-69
2022/06/03 03:25:38;;;;;;;10.80;6.40;;;;;;;13.66;96.99;96335.91;4974821;28;20239;-67
2022/06/03 03:28:23;;;;;;;11.43;6.80;;;;;;;13.56;98.76;96340.72;4974938;28;20229;-68
2022/06/03 03:31:05;;;;;;;11.60;7.00;;;;;;;13.58;99.92;96341.34;4975118;28;20207;-68
2022/06/03 03:33:56;;;;;;;10.30;6.68;;;;;;;13.71;98.82;96349.38;4974220;28;20214;-69
2022/06/03 03:37:02;;;;;;;11.77;6.20;;;;;;;13.76;97.81;96330.25;4974845;28;20223;-69
2022/06/03 03:39:51;;;;;;;13.65;8.18;;;;;;;13.95;96.43;96329.56;4975089;28;20206;-68
2022/06/03 03:42:40;;;;;;;8.38;5.90;;;;;;;13.58;96.34;96328.13;4972283;28;20203;-67
2022/06/03 03:45:42;;;;;;;12.00;6.50;;;;;;;13.55;96.52;96331.13;4975039;28;20659;-68
2022/06/03 03:48:51;;;;;;;10.90;6.95;;;;;;;13.78;98.23;96337.00;4974866;28;20195;-66
2022/06/03 03:51:33;;;;;;;11.60;6.95;;;;;;;13.90;99.75;96340.75;4974541;28;20581;-70
2022/06/03 03:54:26;;;;;;;11.43;7.40;;;;;;;13.93;100.00;96344.84;4973945;28;20549;-69
2022/06/03 03:57:42;;;;;;;12.27;7.35;;;;;;;14.03;97.32;96362.03;4974282;28;20227;-69
2022/06/03 04:00:28;;;;;;;8.13;5.38;;;;;;;13.73;96.53;96365.88;4969767;28;20203;-67
2022/06/03 04:03:23;;;;;;;11.57;6.55;;;;;;;13.91;96.27;96360.91;4974333;28;20203;-69
2022/06/03 04:06:25;;;;;;;9.43;5.72;;;;;;;13.71;96.77;96381.16;4974512;28;20246;-69
2022/06/03 04:09:16;;;;;;;12.02;6.13;;;;;;;13.88;96.14;96384.34;4974768;28;20215;-69
2022/06/03 04:12:14;;;;;;;12.60;5.72;;;;;;;13.62;96.88;96386.78;4974371;28;20222;-69
2022/06/03 04:15:26;;;;;;;10.95;6.03;;;;;;;13.97;97.20;96381.34;4974291;28;20212;-68
2022/06/03 04:18:13;;;;;;;10.57;6.65;;;;;;;13.93;100.00;96374.81;4948540;28;20235;-68
2022/06/03 04:21:05;;;;;;;12.57;6.55;;;;;;;14.11;99.68;96377.81;4974351;28;20650;-69
2022/06/03 04:23:57;;;;;;;11.65;6.80;;;;;;;14.10;98.69;96378.81;4974604;28;20683;-70
2022/06/03 04:26:54;;;;;;;10.52;6.90;;;;;;;14.23;96.94;96378.88;4973853;28;20711;-67
2022/06/03 04:30:01;;;;;;;10.75;6.82;;;;;;;14.42;99.03;96371.06;4973959;28;20203;-67
2022/06/03 04:33:16;;;;;;;12.15;7.32;;;;;;;14.71;98.92;96354.81;4973645;28;20203;-70
2022/06/03 04:36:09;;;;;;;14.25;6.75;;;;;;;14.68;100.00;96345.44;4910721;28;20205;-68
2022/06/03 04:39:18;;;;;;;10.18;6.68;;;;;;;15.02;98.70;96358.59;4916385;28;20201;-69
2022/06/03 04:42:18;;;;;;;12.40;7.07;;;;;;;15.14;99.28;96367.59;4909234;28;20633;-69
2022/06/03 04:45:47;;;;;;;15.15;8.07;;;;;;;15.52;98.04;96374.00;4973992;28;20231;-70
2022/06/03 04:48:49;;;;;;;13.38;7.30;;;;;;;15.40;98.99;96362.34;4973705;28;20214;-66
2022/06/03 04:52:08;;;;;;;12.80;7.85;;;;;;;15.53;100.00;96359.69;4970416;28;20199;-70
2022/06/03 04:55:16;;;;;;;15.10;8.52;;;;;;;15.63;100.00;96350.31;4973576;28;20206;-68
2022/06/03 04:58:18;;;;;;;12.10;8.18;;;;;;;15.65;100.00;96353.56;4973575;28;20219;-70
2022/06/03 05:01:12;;;;;;;15.23;8.10;;;;;;;15.74;97.65;96362.16;4948619;28;20690;-69
2022/06/03 05:04:30;;;;;;;19.33;9.07;;;;;;;15.91;98.49;96350.88;4973250;28;20664;-70
2022/06/03 05:07:49;;;;;;;15.20;8.50;;;;;;;16.26;97.32;96354.94;4975699;28;20227;-69
2022/06/03 05:11:03;;;;;;;15.98;8.82;;;;;;;16.20;97.66;96353.88;4977367;28;20207;-69
2022/06/03 05:14:20;;;;;;;16.13;8.43;;;;;;;16.35;98.05;96343.84;4921277;28;20205;-69
2022/06/03 05:17:24;;;;;;;19.25;8.55;;;;;;;16.56;96.82;96338.28;4976887;28;20242;-70
2022/06/03 05:20:31;;;;;;;14.10;8.18;;;;;;;16.83;96.18;96331.78;4977161;28;20218;-66
2022/06/03 05:23:21;;;;;;;13.65;8.65;;;;;;;16.55;100.00;96318.00;4975449;28;20218;-68
2022/06/03 05:26:30;;;;;;;12.98;8.23;;;;;;;16.45;100.00;96304.34;4974520;28;20259;-70
2022/06/03 05:29:27;;;;;;;14.30;8.73;;;;;;;16.51;100.00;96287.53;4976577;28;20210;-69
2022/06/03 05:32:29;;;;;;;13.45;8.02;;;;;;;16.65;98.67;96303.22;4975986;28;20238;-69
2022/06/03 05:35:13;;;;;;;11.27;7.85;;;;;;;16.26;98.95;96329.16;4976670;28;20211;-70
2022/06/03 05:38:03;;;;;;;13.85;7.82;;;;;;;16.52;95.81;96337.03;4976380;28;20227;-67
2022/06/03 05:40:37;;;;;;;12.30;7.22;;;;;;;16.72;95.11;96346.56;4975136;28;20868;-70
2022/06/03 05:43:40;;;;;;;9.82;7.28;;;;;;;16.84;94.31;96341.38;4975931;28;20203;-69
2022/06/03 05:46:18;;;;;;;12.82;7.68;;;;;;;16.82;94.19;96341.59;4976595;28;20257;-69
2022/06/03 05:49:07;;;;;;;11.32;7.00;;;;;;;16.81;94.57;96331.97;4976422;28;20218;-69
2022/06/03 05:51:56;;;;;;;11.07;7.03;;;;;;;16.92;93.23;96335.84;4975949;28;20694;-70
2022/06/03 05:54:35;;;;;;;13.45;7.65;;;;;;;16.89;94.14;96347.72;4976300;28;20199;-69
2022/06/03 05:57:13;;;;;;;14.57;8.23;;;;;;;17.09;93.15;96349.25;4976611;28;20219;-70
2022/06/03 06:00:01;;;;;;;13.57;7.82;;;;;;;17.12;93.68;96351.47;4976098;28;20214;-68
2022/06/03 06:02:38;;;;;;;9.43;6.90;;;;;;;17.21;97.33;96347.53;4973498;28;20206;-70
2022/06/03 06:05:13;;;;;;;13.45;7.57;;;;;;;17.57;94.49;96363.69;4976179;28;21016;-68
2022/06/03 06:07:50;;;;;;;11.00;7.45;;;;;;;17.42;97.68;96363.19;4976198;28;20333;-69
2022/06/03 06:10:31;;;;;;;13.77;7.30;;;;;;;17.70;94.73;96366.25;4974867;28;20210;-68
2022/06/03 06:13:12;;;;;;;10.52;7.05;;;;;;;17.84;91.91;96362.44;4975901;28;20214;-70
2022/06/03 06:16:01;;;;;;;10.20;6.85;;;;;;;18.00;90.58;96360.03;4975387;28;20225;-70
2022/06/03 06:18:38;;;;;;;10.35;6.72;;;;;;;18.08;91.35;96359.75;4975399;28;20210;-69
2022/06/03 06:21:14;;;;;;;13.02;7.07;;;;;;;18.19;90.11;96351.06;4975539;28;20242;-70
2022/06/03 06:23:46;;;;;;;13.02;6.53;;;;;;;18.26;87.20;96351.78;4974807;28;20202;-67
2022/06/03 06:26:34;;;;;;;11.15;6.78;;;;;;;18.19;91.39;96352.91;4975809;28;20235;-68
2022/06/03 06:29:18;;;;;;;11.05;6.93;;;;;;;18.51;86.85;96348.03;4975476;28;20214;-69
2022/06/03 06:32:08;;;;;;;12.18;7.28;;;;;;;18.58;87.13;96346.13;4975036;28;20322;-70
2022/06/03 06:34:52;;;;;;;9.18;6.28;;;;;;;18.73;87.51;96349.19;4974195;28;20203;-67
2022/06/03 06:37:41;;;;;;;10.63;7.00;;;;;;;19.00;85.93;96343.31;4974872;28;20230;-66
2022/06/03 06:40:23;;;;;;;10.73;6.80;;;;;;;19.16;86.93;96331.19;4973149;28;20204;-68
2022/06/03 06:43:01;;;;;;;14.05;6.82;;;;;;;19.06;85.24;96328.25;4975597;28;20203;-70
2022/06/03 06:45:39;;;;;;;12.02;7.18;;;;;;;19.19;84.98;96333.41;4975747;28;20593;-70
2022/06/03 06:48:15;;;;;;;11.65;7.20;;;;;;;19.11;84.82;96323.84;4975179;28;20227;-70
2022/06/03 06:50:50;;;;;;;10.07;6.70;;;;;;;19.38;84.47;96322.41;4975951;28;20203;-70
2022/06/03 06:53:22;;;;;;;13.57;6.82;;;;;;;19.28;84.31;96329.38;4974416;28;20203;-69
2022/06/03 06:55:56;;;;;;;10.68;7.32;;;;;;;19.48;84.61;96322.69;4975809;28;20676;-69
2022/06/03 06:58:32;;;;;;;16.20;7.22;;;;;;;19.46;83.15;96322.06;4975594;28;20247;-67
2022/06/03 07:01:03;;;;;;;12.80;6.90;;;;;;;19.57;84.24;96308.72;4975571;28;20680;-67
2022/06/03 07:03:44;;;;;;;9.48;6.68;;;;;;;19.78;84.21;96316.22;4974880;28;20219;-68
2022/06/03 07:06:15;;;;;;;10.27;6.47;;;;;;;19.85;87.86;96313.44;4975364;28;20223;-70
2022/06/03 07:08:55;;;;;;;10.48;6.63;;;;;;;20.12;83.06;96318.09;4975054;28;20587;-67
2022/06/03 07:11:28;;;;;;;9.18;6.60;;;;;;;19.99;82.00;96313.00;4975148;28;20203;-68
2022/06/03 07:13:57;;;;;;;8.88;6.47;;;;;;;20.16;83.09;96311.22;4975512;28;20679;-70
2022/06/03 07:22:20;;;;;;;10.50;6.70;;;;;;;20.33;83.35;96299.56;4975284;28;20285;-67
2022/06/03 07:24:51;;;;;;;12.25;6.53;;;;;;;20.58;82.36;96294.78;4974965;28;20705;-68
2022/06/03 07:27:28;;;;;;;9.40;6.22;;;;;;;20.77;81.69;96293.56;4975271;28;20614;-67
2022/06/03 07:30:03;;;;;;;9.40;6.05;;;;;;;20.98;80.34;96293.69;4974956;28;20207;-70
2022/06/03 07:32:35;;;;;;;10.73;5.93;;;;;;;20.82;82.17;96288.28;4974575;28;20234;-70
2022/06/03 07:35:07;;;;;;;9.18;6.30;;;;;;;20.85;81.62;96295.88;4974821;28;20568;-68
2022/06/03 07:37:39;;;;;;;11.75;6.53;;;;;;;20.93;80.87;96285.56;4974983;28;20662;-71
2022/06/03 07:40:14;;;;;;;10.25;5.95;;;;;;;21.18;79.09;96282.53;4972050;28;20245;-69
2022/06/03 07:42:50;;;;;;;9.00;5.97;;;;;;;21.52;78.22;96279.69;4974649;28;20199;-70
2022/06/03 07:45:35;;;;;;;8.07;5.63;;;;;;;21.48;78.75;96278.50;4975228;28;20294;-67
2022/06/03 07:48:03;;;;;;;11.23;6.60;;;;;;;21.30;79.10;96272.59;4974295;28;20227;-70
2022/06/03 07:50:35;;;;;;;9.38;5.97;;;;;;;21.22;81.18;96273.78;4974839;28;20199;-71
2022/06/03 07:53:08;;;;;;;12.32;5.78;;;;;;;21.53;77.24;96275.94;4974632;28;20210;-70
2022/06/03 07:55:35;;;;;;;12.20;5.97;;;;;;;21.42;80.92;96278.69;4974613;28;20694;-69
2022/06/03 07:58:06;;;;;;;10.85;6.40;;;;;;;21.91;81.66;96271.47;4974455;28;20243;-70
2022/06/03 08:00:35;;;;;;;9.90;6.85;;;;;;;21.97;81.76;96261.59;4974898;28;20199;-70
2022/06/03 08:03:04;;;;;;;8.48;6.28;;;;;;;22.06;77.46;96253.72;4973769;28;20211;-67
2022/06/03 08:05:31;;;;;;;7.88;5.90;;;;;;;22.01;77.52;96257.38;4974532;28;20203;-70
2022/06/03 08:11:00;;;;;;;12.38;6.05;;;;;;;22.26;80.49;96245.13;4974663;28;20753;-70
2022/06/03 08:13:44;;;;;;;10.18;6.35;;;;;;;22.34;77.52;96242.00;4973970;28;21100;-66
2022/06/03 08:16:15;;;;;;;10.38;5.95;;;;;;;22.25;81.89;96241.63;4974631;28;20219;-68
2022/06/03 08:18:44;;;;;;;10.43;6.22;;;;;;;22.02;78.27;96254.47;4974316;28;20204;-70
2022/06/03 08:21:14;;;;;;;9.63;5.97;;;;;;;22.36;79.87;96246.06;4974677;28;20204;-67
2022/06/03 08:23:41;;;;;;;8.73;5.90;;;;;;;22.53;77.73;96240.66;4974566;28;20199;-70
2022/06/03 08:26:11;;;;;;;6.38;4.85;;;;;;;22.70;75.62;96243.00;4973970;28;20223;-71
2022/06/03 08:28:44;;;;;;;7.93;5.50;;;;;;;22.79;75.77;96246.06;4973952;28;20230;-70
2022/06/03 08:31:11;;;;;;;7.13;4.60;;;;;;;22.52;75.25;96255.97;4974680;28;20210;-71
2022/06/03 08:33:42;;;;;;;7.78;4.80;;;;;;;22.60;76.60;96258.19;4973336;28;20569;-70
2022/06/03 08:36:15;;;;;;;8.10;5.28;;;;;;;22.46;74.83;96256.94;4973973;28;20246;-68
2022/06/03 08:38:46;;;;;;;20.00;5.38;;;;;;;22.83;74.35;96260.63;4974589;28;20196;-71
2022/06/03 08:41:28;;;;;;;7.47;4.75;;;;;;;23.08;78.89;96255.56;4972838;28;20203;-66
2022/06/03 08:44:19;;;;;;;6.43;4.95;;;;;;;22.98;78.71;96255.41;4976558;28;21351;-71
2022/06/03 08:46:52;;;;;;;7.63;4.55;;;;;;;23.30;74.43;96248.25;4977369;28;20227;-70
2022/06/03 08:49:20;;;;;;;7.20;4.95;;;;;;;23.30;73.80;96248.25;4977759;28;20199;-68
2022/06/03 08:51:50;;;;;;;6.60;4.80;;;;;;;23.55;74.75;96250.06;4977564;28;20216;-67
2022/06/03 08:54:26;;;;;;;6.93;4.50;;;;;;;23.65;72.32;96239.41;4977134;28;20207;-69
2022/06/03 08:56:58;;;;;;;6.50;4.18;;;;;;;23.57;72.87;96245.22;4977059;28;20254;-67
2022/06/03 08:59:33;;;;;;;11.63;5.13;;;;;;;23.32;76.52;96246.91;4977235;28;20207;-71
2022/06/03 09:02:04;;;;;;;6.75;4.88;;;;;;;23.73;74.38;96244.31;4977469;28;20202;-68
2022/06/03 09:04:37;;;;;;;8.07;4.20;;;;;;;24.18;73.07;96242.72;4976831;28;20200;-70
2022/06/03 09:07:10;;;;;;;9.35;4.78;;;;;;;24.18;74.43;96231.94;4977060;28;21029;-70
2022/06/03 09:09:44;;;;;;;9.00;4.45;;;;;;;24.37;71.39;96229.63;4977409;28;20207;-70
2022/06/03 09:12:16;;;;;;;8.02;5.07;;;;;;;24.12;70.88;96233.00;4977090;28;20550;-69
2022/06/03 09:14:47;;;;;;;8.55;4.60;;;;;;;24.53;71.73;96217.88;4976850;28;20218;-69
2022/06/03 09:17:30;;;;;;;5.65;4.10;;;;;;;24.78;70.19;96216.91;4976914;28;20719;-70
2022/06/03 09:20:01;;;;;;;7.53;4.68;;;;;;;25.04;70.66;96221.28;4977291;28;20214;-71
2022/06/03 09:22:32;;;;;;;7.80;5.05;;;;;;;24.98;69.83;96224.22;4976702;28;20204;-69
2022/06/03 09:25:01;;;;;;;6.20;3.88;;;;;;;25.37;69.41;96221.63;4977567;28;20269;-67
2022/06/03 09:27:30;;;;;;;6.78;4.30;;;;;;;25.00;69.41;96225.59;4977140;28;20238;-70
2022/06/03 09:30:03;;;;;;;8.52;5.20;;;;;;;24.94;70.50;96217.75;4976952;28;20222;-69
2022/06/03 09:32:34;;;;;;;9.60;5.40;;;;;;;25.03;69.32;96218.84;4976127;28;20203;-67
2022/06/03 09:35:05;;;;;;;8.93;4.75;;;;;;;24.67;74.17;96204.47;4977154;28;20199;-71
2022/06/03 09:37:35;;;;;;;10.10;4.70;;;;;;;25.28;69.83;96190.06;4976432;28;20227;-69
2022/06/03 09:40:04;;;;;;;7.20;4.30;;;;;;;25.69;70.27;96188.94;4973788;28;20207;-68
2022/06/03 09:42:34;;;;;;;5.95;4.38;;;;;;;25.78;69.80;96190.06;4976530;28;20196;-70
2022/06/03 09:45:05;;;;;;;7.82;4.68;;;;;;;25.86;68.98;96176.81;4976321;28;20310;-70
2022/06/03 09:47:32;;;;;;;5.57;4.25;;;;;;;25.55;67.27;96180.59;4976365;28;20239;-69
2022/06/03 09:49:59;;;;;;;5.47;4.20;;;;;;;25.82;72.15;96177.63;4976771;28;20207;-70
2022/06/03 09:52:28;;;;;;;7.35;4.70;;;;;;;25.62;70.06;96174.91;4974951;28;20207;-68
2022/06/03 09:54:56;;;;;;;5.35;4.10;;;;;;;25.51;67.16;96181.38;4976856;28;20215;-71
2022/06/03 09:57:27;;;;;;;5.38;3.80;;;;;;;25.82;70.27;96159.53;4976677;28;20219;-69
2022/06/03 09:59:57;;;;;;;7.63;4.85;;;;;;;26.20;65.77;96159.69;4976639;28;20215;-71
2022/06/03 10:02:26;;;;;;;5.60;4.00;;;;;;;26.58;66.83;96149.00;4975918;28;20273;-68
2022/06/03 10:04:53;;;;;;;7.80;4.63;;;;;;;26.14;67.58;96163.47;4976736;28;20207;-70
2022/06/03 10:07:20;;;;;;;5.88;4.55;;;;;;;26.70;65.24;96151.38;4976211;28;20223;-69
2022/06/03 10:12:53;;;;;;;12.30;6.28;;;;;;;27.09;64.03;96150.34;4975688;28;20712;-69
2022/06/03 10:15:39;;;;;;;5.90;4.47;;;;;;;26.97;63.55;96135.56;4976266;28;20287;-68
2022/06/03 10:18:14;;;;;;;7.13;4.32;;;;;;;27.82;65.81;96125.63;4976096;28;20215;-68
2022/06/03 10:20:41;;;;;;;5.65;4.30;;;;;;;27.20;64.31;96120.22;4976268;28;20210;-70
2022/06/03 10:23:09;;;;;;;5.45;4.38;;;;;;;27.12;64.20;96125.44;4975228;28;20207;-68
2022/06/03 10:25:37;;;;;;;7.28;3.90;;;;;;;27.28;64.54;96122.31;4976020;28;20212;-71
2022/06/03 10:28:05;;;;;;;5.20;3.70;;;;;;;27.45;64.10;96125.41;4976354;28;20230;-71
2022/06/03 10:30:36;;;;;;;5.05;3.90;;;;;;;27.40;63.52;96108.41;4976324;28;20202;-70
2022/06/03 10:33:04;;;;;;;5.82;4.20;;;;;;;27.20;63.14;96119.41;4975385;28;20576;-70
2022/06/03 10:35:38;;;;;;;9.55;4.13;;;;;;;27.37;66.42;96120.63;4976521;28;20199;-71
2022/06/03 10:38:07;;;;;;;5.50;3.72;;;;;;;27.52;65.08;96119.66;4975636;28;20709;-70
2022/06/03 10:40:34;;;;;;;6.40;3.80;;;;;;;27.52;64.58;96122.38;4972731;28;20843;-70
2022/06/03 10:43:03;;;;;;;4.45;3.70;;;;;;;27.63;64.23;96123.94;4975753;28;20199;-71
2022/06/03 10:45:31;;;;;;;6.40;3.72;;;;;;;27.72;62.84;96117.59;4976387;28;20218;-70
2022/06/03 10:47:58;;;;;;;5.93;3.60;;;;;;;27.22;62.81;96109.13;4975382;28;20227;-70
2022/06/03 10:50:28;;;;;;;6.97;3.78;;;;;;;27.95;63.62;96120.34;4975627;28;20207;-70
2022/06/03 11:01:31;;;;;;;4.18;3.40;;;;;;;28.40;60.88;96130.69;4975861;28;20218;-70
2022/06/03 11:03:57;;;;;;;6.68;3.90;;;;;;;28.17;62.74;96125.25;4974226;28;20211;-71
2022/06/03 11:06:26;;;;;;;5.60;3.88;;;;;;;28.59;60.43;96123.34;4975538;28;20245;-70
2022/06/03 11:08:58;;;;;;;5.97;3.30;;;;;;;28.55;59.15;96115.03;4975304;28;20280;-70
2022/06/03 11:11:33;;;;;;;4.15;3.60;;;;;;;28.89;58.29;96117.56;4975673;28;20212;-70
2022/06/03 11:14:30;;;;;;;4.30;3.17;;;;;;;28.99;56.70;96105.44;4975508;28;20206;-70
2022/06/03 11:17:04;;;;;;;4.97;3.22;;;;;;;28.96;56.01;96108.75;4976058;28;20239;-71
2022/06/03 11:19:34;;;;;;;4.53;3.45;;;;;;;28.89;59.77;96106.69;4975162;28;20203;-70
2022/06/03 11:22:17;;;;;;;4.90;2.75;;;;;;;29.15;56.37;96095.13;4974855;28;20203;-71
2022/06/03 11:24:51;;;;;;;4.15;2.85;;;;;;;29.18;57.33;96094.56;4975408;28;20207;-71
2022/06/03 11:27:20;;;;;;;4.68;3.13;;;;;;;28.90;57.85;96098.25;4974950;28;20219;-70
2022/06/03 11:29:51;;;;;;;3.53;2.80;;;;;;;29.23;56.15;96094.47;4974986;28;20718;-71
2022/06/03 11:32:19;;;;;;;4.93;2.75;;;;;;;29.25;55.81;96093.09;4974540;28;20718;-71
2022/06/03 11:34:51;;;;;;;5.50;2.80;;;;;;;29.33;55.36;96092.44;4975280;28;20246;-71
2022/06/03 11:37:24;;;;;;;3.65;2.78;;;;;;;29.37;54.10;96095.38;4975095;28;20231;-70
2022/06/03 11:39:54;;;;;;;4.47;2.30;;;;;;;29.57;51.45;96092.28;4974806;28;20214;-70
2022/06/03 11:42:25;;;;;;;2.88;2.50;;;;;;;29.76;53.06;96091.09;4972041;28;20206;-71
2022/06/03 11:45:01;;;;;;;2.95;2.50;;;;;;;29.87;51.27;96095.28;4975417;28;20218;-71
2022/06/03 11:47:32;;;;;;;4.40;2.55;;;;;;;29.71;48.67;96089.28;4974639;28;20223;-71
2022/06/03 11:49:58;;;;;;;2.50;2.30;;;;;;;29.32;45.62;96074.53;4974064;28;20732;-70
2022/06/03 11:52:25;;;;;;;6.72;2.45;;;;;;;29.22;49.14;96079.28;4973563;28;20199;-70
2022/06/03 11:54:52;;;;;;;5.30;2.53;;;;;;;28.83;52.49;96076.13;4976122;28;20850;-71
2022/06/03 11:57:19;;;;;;;3.78;2.50;;;;;;;28.53;53.38;96075.72;4974681;28;20230;-70
2022/06/03 11:59:52;;;;;;;5.63;2.90;;;;;;;28.87;53.00;96076.31;4974388;28;21025;-71
2022/06/03 12:02:28;;;;;;;4.50;2.50;;;;;;;28.87;53.40;96077.16;4973340;28;20203;-71
2022/06/03 12:04:59;;;;;;;4.10;2.70;;;;;;;29.15;52.55;96078.84;4974459;28;20221;-71
2022/06/03 12:07:41;;;;;;;5.05;2.58;;;;;;;29.28;51.63;96086.25;4972545;28;20235;-71
2022/06/03 12:10:15;;;;;;;4.28;2.60;;;;;;;29.43;52.21;96091.44;4972469;28;20301;-71
2022/06/03 12:15:44;;;;;;;4.50;2.33;;;;;;;29.19;54.67;96090.75;4973062;28;20252;-71
2022/06/03 12:18:44;;;;;;;3.70;2.63;;;;;;;29.74;48.23;96080.53;4975686;28;20206;-71
2022/06/03 12:21:15;;;;;;;2.78;2.00;;;;;;;29.97;43.55;96087.75;4976245;28;20213;-71
2022/06/03 12:23:55;;;;;;;4.15;2.00;;;;;;;29.76;48.28;96086.50;4976592;28;20214;-71
2022/06/03 12:26:27;;;;;;;4.72;1.75;;;;;;;29.75;46.92;96084.88;4977479;28;20226;-71
2022/06/03 12:28:59;;;;;;;2.58;1.95;;;;;;;29.54;46.12;96090.97;4977367;28;20226;-71
2022/06/03 12:31:36;;;;;;;4.18;1.90;;;;;;;29.62;45.75;96085.66;4976947;28;20199;-71
2022/06/03 12:34:20;;;;;;;4.45;1.65;;;;;;;29.63;47.56;96076.41;4976081;28;20730;-71
2022/06/03 12:36:52;;;;;;;5.43;2.45;;;;;;;29.40;44.35;96075.75;4977110;28;20634;-71
2022/06/03 12:39:25;;;;;;;3.00;2.10;;;;;;;29.36;45.99;96080.97;4976955;28;20509;-71
2022/06/03 12:42:05;;;;;;;3.05;2.10;;;;;;;29.21;48.40;96074.97;4976996;28;20208;-71
2022/06/03 12:44:44;;;;;;;4.22;2.08;;;;;;;29.59;45.02;96066.44;4976612;28;20203;-71
2022/06/03 12:47:30;;;;;;;3.40;2.30;;;;;;;30.01;46.22;96058.84;4976630;28;20733;-71
2022/06/03 12:50:26;;;;;;;2.50;1.80;;;;;;;29.74;57.06;96066.94;4973444;28;20231;-71
2022/06/03 12:52:57;;;;;;;3.78;2.05;;;;;;;29.86;46.17;96061.88;4976106;28;20225;-71
2022/06/03 12:55:27;;;;;;;2.55;2.10;;;;;;;29.78;44.18;96062.53;4976940;28;20541;-70
2022/06/03 12:57:57;;;;;;;3.42;2.00;;;;;;;29.56;48.84;96066.22;4976656;28;20263;-70
2022/06/03 13:00:32;;;;;;;4.88;2.03;;;;;;;29.60;46.63;96057.97;4976395;28;20562;-70
2022/06/03 13:03:00;;;;;;;6.30;2.33;;;;;;;29.39;48.94;96049.69;4976020;28;20210;-70
2022/06/03 13:05:38;;;;;;;3.90;2.03;;;;;;;29.15;45.51;96051.72;4978395;28;20203;-70